Time;durP1;ratioP1;P1;durP2;ratioP2;P2;SDS_P1;SDS_P2;PMS_P1;PMS_P2;Temp;Humidity;BMP_temperature;BMP_pressure;BME280_temperature;BME280_humidity;BME280_pressure;Samples;Min_cycle;Max_cycle;Signal;HPM_P1;HPM_P2
2021/12/31 00:01:09;;;;;;;1.83;1.00;;;;;;;12.87;81.59;98770.78;5059262;28;20199;-73
2021/12/31 00:03:35;;;;;;;1.67;0.93;;;;;;;12.89;81.33;98778.59;5059191;28;20193;-72
2021/12/31 00:06:02;;;;;;;1.37;1.03;;;;;;;12.91;81.48;98773.84;5058631;28;20231;-72
2021/12/31 00:08:28;;;;;;;0.97;0.97;;;;;;;12.97;80.83;98773.81;5059153;28;20199;-72
2021/12/31 00:10:59;;;;;;;2.00;1.07;;;;;;;12.89;81.46;98774.06;5058778;28;20302;-73
2021/12/31 00:13:27;;;;;;;1.73;1.00;;;;;;;12.87;81.72;98777.97;5059260;28;20208;-73
2021/12/31 00:15:53;;;;;;;1.23;1.00;;;;;;;12.89;81.29;98775.91;5058927;28;20234;-72
2021/12/31 00:18:19;;;;;;;1.13;0.90;;;;;;;12.82;82.17;98772.47;5058987;28;20194;-72
2021/12/31 00:20:46;;;;;;;1.73;1.00;;;;;;;12.83;81.97;98780.25;5058160;28;20227;-74
2021/12/31 00:23:15;;;;;;;1.50;1.17;;;;;;;12.80;82.01;98783.34;5058879;28;20203;-73
2021/12/31 00:25:43;;;;;;;1.43;1.00;;;;;;;12.82;82.09;98778.63;5058777;28;20309;-74
2021/12/31 00:28:11;;;;;;;1.67;1.10;;;;;;;12.83;81.94;98774.94;5058794;28;20226;-74
2021/12/31 00:30:38;;;;;;;1.20;0.90;;;;;;;12.75;82.46;98779.72;5058529;28;20578;-74
2021/12/31 00:33:08;;;;;;;2.07;0.90;;;;;;;12.82;82.14;98775.97;5058370;28;20195;-74
2021/12/31 00:35:35;;;;;;;1.40;1.03;;;;;;;12.77;82.13;98781.13;5058589;28;20266;-74
2021/12/31 00:38:02;;;;;;;2.07;1.20;;;;;;;12.71;83.02;98779.31;5058883;28;20200;-74
2021/12/31 00:40:28;;;;;;;1.60;1.03;;;;;;;12.71;82.81;98779.31;5071060;28;20211;-74
2021/12/31 00:42:55;;;;;;;2.43;1.17;;;;;;;12.76;82.85;98786.69;5078192;28;20222;-73
2021/12/31 00:45:24;;;;;;;1.00;1.00;;;;;;;12.74;83.09;98786.88;5078682;28;20236;-74
2021/12/31 00:47:51;;;;;;;0.90;0.90;;;;;;;12.72;83.18;98778.28;5078449;28;20195;-74
2021/12/31 00:50:18;;;;;;;1.47;1.00;;;;;;;12.60;84.76;98781.84;5063874;28;20248;-74
2021/12/31 00:52:45;;;;;;;1.17;1.07;;;;;;;12.64;83.93;98783.03;5058251;28;20202;-74
2021/12/31 00:55:13;;;;;;;1.13;1.10;;;;;;;12.64;83.75;98791.06;5058130;28;20585;-75
2021/12/31 00:57:40;;;;;;;1.57;0.90;;;;;;;12.54;84.24;98780.03;5058933;28;20191;-73
2021/12/31 01:00:09;;;;;;;1.10;0.90;;;;;;;12.50;84.48;98778.81;5070551;28;20213;-74
2021/12/31 01:02:35;;;;;;;1.17;0.90;;;;;;;12.45;84.96;98783.97;5078122;28;20200;-74
2021/12/31 01:05:03;;;;;;;0.93;0.93;;;;;;;12.40;85.04;98789.97;5058262;28;20202;-73
2021/12/31 01:07:30;;;;;;;1.57;1.00;;;;;;;12.41;85.35;98788.94;5071407;28;20187;-74
2021/12/31 01:09:56;;;;;;;2.67;1.00;;;;;;;12.41;85.41;98796.09;5059329;28;20198;-74
2021/12/31 01:12:25;;;;;;;2.37;0.90;;;;;;;12.35;85.81;98797.75;5057877;28;20253;-74
2021/12/31 01:14:57;;;;;;;1.43;1.00;;;;;;;12.36;85.86;98795.91;5073679;28;20187;-74
2021/12/31 01:17:39;;;;;;;0.80;0.80;;;;;;;12.33;86.23;98799.81;5077873;28;20552;-74
2021/12/31 01:20:07;;;;;;;1.00;0.87;;;;;;;12.31;86.38;98793.91;5058751;28;20221;-73
2021/12/31 01:22:34;;;;;;;0.83;0.80;;;;;;;12.26;86.69;98798.22;5057718;28;20191;-74
2021/12/31 01:25:02;;;;;;;1.07;0.80;;;;;;;12.27;86.36;98806.00;5058884;28;20193;-74
2021/12/31 01:27:29;;;;;;;1.20;1.10;;;;;;;12.21;87.30;98804.16;5057634;28;20227;-74
2021/12/31 01:29:56;;;;;;;2.67;1.20;;;;;;;12.13;87.73;98796.44;5072942;28;20198;-74
2021/12/31 01:32:22;;;;;;;1.10;0.97;;;;;;;12.13;87.71;98799.09;5077526;28;20202;-74
2021/12/31 01:34:49;;;;;;;2.90;1.07;;;;;;;12.14;87.31;98795.41;5068218;28;20189;-74
2021/12/31 01:37:15;;;;;;;2.30;1.23;;;;;;;12.10;87.66;98788.03;5077183;28;20220;-74
2021/12/31 01:39:42;;;;;;;0.97;0.90;;;;;;;12.10;87.38;98796.84;5076972;28;20217;-74
2021/12/31 01:42:12;;;;;;;0.90;0.90;;;;;;;11.95;88.05;98790.97;5076542;28;20627;-74
2021/12/31 01:44:42;;;;;;;2.27;1.10;;;;;;;11.85;88.99;98784.44;5072925;28;20185;-74
2021/12/31 01:47:15;;;;;;;1.00;1.00;;;;;;;11.75;89.21;98792.84;5057208;28;20313;-74
2021/12/31 01:49:53;;;;;;;1.43;1.10;;;;;;;11.76;89.21;98797.13;5057226;28;20185;-74
2021/12/31 01:52:20;;;;;;;1.30;1.20;;;;;;;11.67;89.82;98795.72;5056896;28;20193;-74
2021/12/31 01:54:47;;;;;;;1.00;1.00;;;;;;;11.62;89.91;98800.06;5066375;28;20197;-74
2021/12/31 01:57:14;;;;;;;1.33;1.10;;;;;;;11.56;90.18;98801.66;5076334;28;20608;-74
2021/12/31 01:59:42;;;;;;;1.30;1.20;;;;;;;11.54;90.15;98793.06;5076679;28;20217;-74
2021/12/31 02:02:10;;;;;;;1.60;1.10;;;;;;;11.57;89.66;98794.50;5063847;28;20190;-74
2021/12/31 02:04:39;;;;;;;1.60;1.03;;;;;;;11.39;90.58;98786.31;5056637;28;20308;-74
2021/12/31 02:07:06;;;;;;;1.67;1.10;;;;;;;11.41;90.49;98794.91;5056855;28;20261;-74
2021/12/31 02:09:37;;;;;;;2.17;1.00;;;;;;;11.39;90.47;98789.00;5059722;28;20576;-74
2021/12/31 02:12:04;;;;;;;3.37;1.17;;;;;;;11.38;90.07;98782.00;5076576;28;20599;-74
2021/12/31 02:14:31;;;;;;;1.30;1.20;;;;;;;11.18;91.15;98776.72;5074755;28;20193;-74
2021/12/31 02:16:58;;;;;;;1.37;0.90;;;;;;;11.19;91.07;98783.66;5076231;28;20232;-74
2021/12/31 02:19:28;;;;;;;1.47;1.00;;;;;;;11.20;91.10;98787.97;5075656;28;20216;-74
2021/12/31 02:21:55;;;;;;;2.53;1.20;;;;;;;11.22;90.71;98785.94;5056632;28;20186;-75
2021/12/31 02:24:22;;;;;;;1.40;1.07;;;;;;;11.22;90.49;98788.59;5056368;28;20585;-74
2021/12/31 02:26:50;;;;;;;1.23;0.97;;;;;;;11.18;90.10;98792.69;5075415;28;20307;-74
2021/12/31 02:29:16;;;;;;;1.60;0.80;;;;;;;11.11;90.84;98783.88;5075842;28;20189;-74
2021/12/31 02:31:43;;;;;;;3.73;1.00;;;;;;;11.16;90.01;98785.94;5058632;28;20532;-74
2021/12/31 02:34:09;;;;;;;2.87;1.17;;;;;;;11.23;89.50;98792.06;5056485;28;20228;-74
2021/12/31 02:36:36;;;;;;;2.20;1.10;;;;;;;11.20;89.15;98774.66;5075347;28;20224;-74
2021/12/31 02:39:03;;;;;;;1.73;1.03;;;;;;;11.13;89.97;98779.97;5075669;28;20184;-74
2021/12/31 02:41:29;;;;;;;1.10;1.00;;;;;;;11.13;89.48;98776.50;5057163;28;20228;-74
2021/12/31 02:43:56;;;;;;;1.10;1.00;;;;;;;11.09;90.01;98777.94;5056368;28;20205;-74
2021/12/31 02:46:22;;;;;;;1.73;1.20;;;;;;;11.03;89.87;98784.06;5072749;28;20217;-74
2021/12/31 02:48:55;;;;;;;1.37;1.23;;;;;;;10.90;90.80;98776.88;5076412;28;20203;-74
2021/12/31 02:51:22;;;;;;;1.10;0.90;;;;;;;10.77;91.63;98776.88;5059430;28;20462;-74
2021/12/31 02:53:52;;;;;;;2.70;1.60;;;;;;;10.91;90.52;98773.19;5056470;28;20197;-73
2021/12/31 02:56:20;;;;;;;1.83;1.10;;;;;;;10.90;90.74;98771.56;5071760;28;20267;-74
2021/12/31 02:58:46;;;;;;;3.50;1.20;;;;;;;10.93;90.19;98763.19;5076276;28;20204;-74
2021/12/31 03:01:13;;;;;;;2.23;1.13;;;;;;;10.91;90.20;98759.09;5075933;28;20691;-74
2021/12/31 03:03:41;;;;;;;2.53;1.03;;;;;;;10.82;91.10;98757.66;5075457;28;20200;-74
2021/12/31 03:06:10;;;;;;;3.03;1.00;;;;;;;10.89;90.70;98763.78;5075938;28;20670;-75
2021/12/31 03:08:41;;;;;;;3.40;1.07;;;;;;;10.92;90.33;98760.72;5076272;28;20196;-73
2021/12/31 03:11:09;;;;;;;1.57;0.93;;;;;;;10.93;90.21;98751.72;5076209;28;20193;-74
2021/12/31 03:13:38;;;;;;;1.60;1.00;;;;;;;11.03;89.59;98754.78;5067281;28;20198;-73
2021/12/31 03:16:06;;;;;;;1.63;1.10;;;;;;;10.95;89.97;98760.34;5058514;28;20320;-74
2021/12/31 03:18:33;;;;;;;1.53;1.23;;;;;;;10.95;90.16;98755.00;5060035;28;20201;-74
2021/12/31 03:21:05;;;;;;;2.43;1.30;;;;;;;11.01;89.59;98746.19;5060259;28;20217;-74
2021/12/31 03:23:32;;;;;;;1.37;1.00;;;;;;;10.95;89.76;98747.03;5067667;28;20185;-74
2021/12/31 03:25:59;;;;;;;2.37;1.10;;;;;;;10.95;89.16;98750.50;5079861;28;20228;-74
2021/12/31 03:28:26;;;;;;;2.20;1.40;;;;;;;10.99;89.71;98757.06;5078049;28;20192;-74
2021/12/31 03:30:52;;;;;;;1.90;1.00;;;;;;;10.98;89.77;98757.25;5076711;28;20603;-74
2021/12/31 03:33:19;;;;;;;2.47;1.10;;;;;;;11.00;89.56;98757.88;5060147;28;20185;-74
2021/12/31 03:35:45;;;;;;;3.73;1.50;;;;;;;10.99;89.70;98757.06;5070725;28;20229;-74
2021/12/31 03:38:12;;;;;;;1.23;1.13;;;;;;;11.03;89.49;98765.44;5079451;28;20622;-73
2021/12/31 03:40:40;;;;;;;1.07;0.90;;;;;;;10.94;89.77;98764.81;5069703;28;20209;-74
2021/12/31 03:43:07;;;;;;;3.43;1.30;;;;;;;10.96;89.90;98756.66;5070301;28;20219;-74
2021/12/31 03:45:33;;;;;;;2.83;1.40;;;;;;;10.96;89.88;98765.44;5071076;28;20217;-73
2021/12/31 03:48:00;;;;;;;2.47;1.03;;;;;;;10.93;89.97;98762.38;5059810;28;20196;-74
2021/12/31 03:50:26;;;;;;;1.93;1.27;;;;;;;10.90;90.33;98760.09;5066081;28;20181;-74
2021/12/31 03:52:52;;;;;;;3.07;1.10;;;;;;;10.89;89.96;98758.47;5079402;28;20228;-74
2021/12/31 03:55:19;;;;;;;1.20;1.10;;;;;;;10.86;90.23;98759.69;5073826;28;20221;-74
2021/12/31 03:57:45;;;;;;;2.13;1.20;;;;;;;10.84;90.01;98758.25;5059540;28;20193;-74
2021/12/31 04:00:12;;;;;;;1.77;1.30;;;;;;;10.80;90.11;98760.53;5072279;28;20209;-74
2021/12/31 04:02:39;;;;;;;2.50;1.23;;;;;;;10.76;90.28;98763.78;5079334;28;20197;-74
2021/12/31 04:05:06;;;;;;;1.80;1.27;;;;;;;10.81;90.43;98761.31;5066903;28;20205;-74
2021/12/31 04:07:32;;;;;;;1.10;0.90;;;;;;;10.81;89.81;98759.50;5058849;28;20615;-74
2021/12/31 04:09:58;;;;;;;1.30;1.20;;;;;;;10.73;90.47;98761.53;5058934;28;20189;-74
2021/12/31 04:12:25;;;;;;;3.80;1.10;;;;;;;10.67;90.67;98771.13;5059331;28;20190;-74
2021/12/31 04:14:51;;;;;;;2.17;1.03;;;;;;;10.75;90.21;98770.13;5063414;28;20200;-74
2021/12/31 04:17:17;;;;;;;2.50;1.13;;;;;;;10.74;90.19;98764.00;5078034;28;20523;-74
2021/12/31 04:19:46;;;;;;;1.10;1.00;;;;;;;10.74;90.12;98757.84;5078838;28;20189;-74
2021/12/31 04:22:13;;;;;;;1.83;1.10;;;;;;;10.60;90.96;98754.34;5078527;28;20200;-74
2021/12/31 04:24:52;;;;;;;1.27;0.93;;;;;;;10.53;91.07;98745.53;5076750;28;20200;-74
2021/12/31 04:27:20;;;;;;;1.87;0.97;;;;;;;10.55;91.30;98748.81;5077386;28;20256;-74
2021/12/31 04:29:50;;;;;;;1.33;1.10;;;;;;;10.59;90.91;98750.03;5072424;28;20186;-74
2021/12/31 04:32:18;;;;;;;2.50;1.07;;;;;;;10.61;90.76;98752.50;5066117;28;20492;-74
2021/12/31 04:34:45;;;;;;;1.80;1.10;;;;;;;10.56;90.98;98744.31;5073069;28;20204;-74
2021/12/31 04:37:12;;;;;;;2.20;1.10;;;;;;;10.55;91.06;98743.50;5058494;28;20217;-74
2021/12/31 04:39:38;;;;;;;2.00;0.93;;;;;;;10.58;91.13;98747.59;5061419;28;20572;-74
2021/12/31 04:42:05;;;;;;;2.83;1.20;;;;;;;10.64;90.88;98746.78;5078039;28;20209;-74
2021/12/31 04:44:31;;;;;;;3.70;1.07;;;;;;;10.37;91.75;98740.59;5075862;28;20205;-74
2021/12/31 04:46:57;;;;;;;2.00;1.27;;;;;;;10.33;92.46;98749.97;5058023;28;20225;-74
2021/12/31 04:49:24;;;;;;;2.57;1.20;;;;;;;10.34;92.88;98745.50;5058743;28;20196;-73
2021/12/31 04:51:50;;;;;;;2.33;1.10;;;;;;;10.24;92.70;98740.59;5065004;28;20200;-73
2021/12/31 04:54:16;;;;;;;3.60;1.50;;;;;;;10.24;93.16;98739.75;5074070;28;20185;-73
2021/12/31 04:56:46;;;;;;;1.93;1.10;;;;;;;10.27;92.77;98744.69;5077150;28;20252;-73
2021/12/31 04:59:12;;;;;;;2.07;1.37;;;;;;;10.22;93.06;98741.78;5076473;28;20228;-73
2021/12/31 05:01:38;;;;;;;2.77;1.20;;;;;;;10.20;93.20;98738.50;5078109;28;20209;-73
2021/12/31 05:04:05;;;;;;;2.80;1.00;;;;;;;10.07;94.11;98738.47;5064079;28;20206;-73
2021/12/31 05:06:32;;;;;;;1.57;1.23;;;;;;;9.97;94.65;98744.13;5058075;28;20521;-73
2021/12/31 05:08:58;;;;;;;1.30;1.20;;;;;;;9.86;95.58;98744.69;5069592;28;20197;-73
2021/12/31 05:11:25;;;;;;;2.70;1.67;;;;;;;9.90;95.58;98742.44;5061616;28;20205;-73
2021/12/31 05:13:51;;;;;;;1.60;1.40;;;;;;;9.84;95.73;98740.59;5067941;28;20193;-73
2021/12/31 05:16:17;;;;;;;1.50;1.40;;;;;;;9.68;96.64;98740.94;5077002;28;20252;-73
2021/12/31 05:18:44;;;;;;;2.23;1.50;;;;;;;9.67;96.37;98744.56;5068688;28;20194;-74
2021/12/31 05:21:10;;;;;;;1.57;1.20;;;;;;;9.65;96.66;98749.28;5058722;28;20232;-74
2021/12/31 05:23:36;;;;;;;1.30;1.20;;;;;;;9.56;97.42;98747.78;5057629;28;20227;-74
2021/12/31 05:26:03;;;;;;;3.77;1.20;;;;;;;9.44;97.91;98749.34;5062464;28;20228;-73
2021/12/31 05:28:32;;;;;;;2.63;1.30;;;;;;;9.32;98.66;98745.63;5066364;28;20211;-74
2021/12/31 05:30:58;;;;;;;1.20;1.10;;;;;;;9.32;98.68;98749.06;5073020;28;20577;-74
2021/12/31 05:33:25;;;;;;;2.70;1.23;;;;;;;9.20;99.09;98744.50;5057589;28;20197;-74
2021/12/31 05:35:51;;;;;;;1.50;1.30;;;;;;;9.15;99.72;98738.97;5059766;28;20228;-74
2021/12/31 05:38:18;;;;;;;1.60;1.20;;;;;;;9.12;99.83;98740.16;5075479;28;20189;-74
2021/12/31 05:40:44;;;;;;;2.07;1.37;;;;;;;9.04;100.00;98747.41;5075831;28;20243;-74
2021/12/31 05:43:10;;;;;;;3.20;1.50;;;;;;;9.02;100.00;98744.16;5057251;28;20193;-74
2021/12/31 05:45:37;;;;;;;2.87;1.30;;;;;;;8.94;100.00;98752.25;5057226;28;20304;-74
2021/12/31 05:48:03;;;;;;;1.27;1.10;;;;;;;8.85;100.00;98748.91;5076617;28;20200;-74
2021/12/31 05:50:30;;;;;;;2.27;1.40;;;;;;;8.79;100.00;98743.56;5076703;28;20200;-74
2021/12/31 05:53:00;;;;;;;2.20;1.00;;;;;;;8.72;100.00;98734.72;5058866;28;20197;-73
2021/12/31 05:55:28;;;;;;;1.30;1.20;;;;;;;8.67;100.00;98740.59;5056745;28;20248;-74
2021/12/31 05:57:55;;;;;;;1.47;1.20;;;;;;;8.62;100.00;98735.06;5058901;28;20209;-74
2021/12/31 06:00:22;;;;;;;3.10;1.40;;;;;;;8.61;100.00;98733.41;5071846;28;20261;-74
2021/12/31 06:02:48;;;;;;;2.37;1.30;;;;;;;8.56;100.00;98732.34;5076655;28;20627;-74
2021/12/31 06:05:15;;;;;;;1.43;1.33;;;;;;;8.54;100.00;98729.88;5073890;28;20192;-74
2021/12/31 06:07:41;;;;;;;6.93;1.53;;;;;;;8.57;100.00;98729.50;5075595;28;20212;-74
2021/12/31 06:10:08;;;;;;;2.23;1.60;;;;;;;8.51;100.00;98732.91;5056728;28;20197;-74
2021/12/31 06:12:36;;;;;;;3.13;1.70;;;;;;;8.39;100.00;98730.94;5056584;28;20189;-74
2021/12/31 06:15:04;;;;;;;2.73;1.33;;;;;;;8.38;100.00;98735.41;5075025;28;20201;-73
2021/12/31 06:17:32;;;;;;;4.33;1.97;;;;;;;8.40;100.00;98733.41;5076178;28;20231;-73
2021/12/31 06:19:58;;;;;;;4.13;1.80;;;;;;;8.34;100.00;98731.53;5057374;28;20500;-74
2021/12/31 06:22:25;;;;;;;2.07;1.60;;;;;;;8.31;100.00;98736.34;5056583;28;20221;-74
2021/12/31 06:24:52;;;;;;;3.10;1.77;;;;;;;8.30;100.00;98740.84;5072726;28;20189;-74
2021/12/31 06:27:20;;;;;;;1.87;1.70;;;;;;;8.31;100.00;98739.84;5069834;28;20229;-74
2021/12/31 06:29:46;;;;;;;3.13;1.60;;;;;;;8.26;100.00;98759.94;5056188;28;20577;-74
2021/12/31 06:32:12;;;;;;;3.87;2.13;;;;;;;8.23;100.00;98758.47;5056221;28;20487;-74
2021/12/31 06:34:39;;;;;;;2.40;1.83;;;;;;;8.33;100.00;98750.25;5065132;28;20185;-74
2021/12/31 06:37:05;;;;;;;1.70;1.53;;;;;;;8.36;100.00;98758.63;5076297;28;20229;-74
2021/12/31 06:39:32;;;;;;;3.10;1.60;;;;;;;8.35;100.00;98756.16;5076354;28;20206;-74
2021/12/31 06:42:01;;;;;;;2.17;1.50;;;;;;;8.30;100.00;98755.91;5068557;28;20568;-74
2021/12/31 06:44:27;;;;;;;2.33;1.50;;;;;;;8.26;100.00;98749.34;5074802;28;20211;-74
2021/12/31 06:46:53;;;;;;;2.87;1.67;;;;;;;8.27;100.00;98748.31;5076244;28;20222;-74
2021/12/31 06:49:20;;;;;;;2.93;1.67;;;;;;;8.27;100.00;98741.22;5078654;28;20580;-74
2021/12/31 06:51:46;;;;;;;3.57;2.03;;;;;;;8.27;100.00;98745.69;5073728;28;20608;-74
2021/12/31 06:54:12;;;;;;;2.47;1.87;;;;;;;8.50;100.00;98748.97;5062559;28;20626;-74
2021/12/31 06:56:39;;;;;;;3.33;2.17;;;;;;;8.50;100.00;98741.84;5080477;28;20224;-74
2021/12/31 06:59:05;;;;;;;3.33;1.83;;;;;;;8.61;100.00;98749.31;5082917;28;20197;-74
2021/12/31 07:01:31;;;;;;;4.27;2.37;;;;;;;8.69;100.00;98751.81;5081668;28;20217;-73
2021/12/31 07:03:58;;;;;;;2.37;1.80;;;;;;;8.36;100.00;98755.16;5082785;28;20638;-74
2021/12/31 07:06:24;;;;;;;2.97;1.80;;;;;;;8.24;100.00;98752.19;5082642;28;20217;-73
2021/12/31 07:08:50;;;;;;;2.73;2.10;;;;;;;8.22;100.00;98756.00;5082526;28;20517;-74
2021/12/31 07:11:20;;;;;;;2.63;1.93;;;;;;;8.16;100.00;98770.00;5079088;28;20480;-73
2021/12/31 07:13:46;;;;;;;3.70;1.80;;;;;;;8.17;100.00;98766.31;5073098;28;20609;-74
2021/12/31 07:16:12;;;;;;;2.53;1.60;;;;;;;8.20;100.00;98771.25;5082572;28;20220;-74
2021/12/31 07:18:39;;;;;;;2.40;1.93;;;;;;;8.12;100.00;98771.34;5082648;28;20189;-73
2021/12/31 07:21:05;;;;;;;3.73;2.00;;;;;;;8.11;100.00;98767.06;5080982;28;20208;-74
2021/12/31 07:23:31;;;;;;;2.50;1.93;;;;;;;8.07;100.00;98768.44;5062581;28;20193;-73
2021/12/31 07:25:58;;;;;;;2.50;1.70;;;;;;;8.05;100.00;98763.34;5062554;28;20236;-73
2021/12/31 07:28:24;;;;;;;3.60;2.30;;;;;;;8.43;100.00;98756.06;5062570;28;20216;-74
2021/12/31 07:30:50;;;;;;;2.73;1.93;;;;;;;8.28;100.00;98763.25;5081159;28;20197;-74
2021/12/31 07:33:19;;;;;;;2.40;2.17;;;;;;;8.12;100.00;98761.59;5082606;28;20207;-74
2021/12/31 07:35:47;;;;;;;2.37;2.03;;;;;;;8.39;100.00;98760.09;5082800;28;20235;-74
2021/12/31 07:38:20;;;;;;;2.13;1.93;;;;;;;8.36;100.00;98755.97;5082342;28;20575;-73
2021/12/31 07:40:51;;;;;;;2.87;1.90;;;;;;;8.28;100.00;98747.34;5063972;28;20280;-74
2021/12/31 07:43:18;;;;;;;2.37;1.83;;;;;;;8.25;100.00;98753.84;5062425;28;20228;-74
2021/12/31 07:45:45;;;;;;;3.93;2.53;;;;;;;8.42;100.00;98757.06;5062359;28;20228;-74
2021/12/31 07:48:12;;;;;;;2.83;2.23;;;;;;;8.67;100.00;98764.47;5062432;28;20197;-74
2021/12/31 07:50:39;;;;;;;2.20;2.00;;;;;;;8.74;100.00;98754.72;5078885;28;20283;-73
2021/12/31 07:53:06;;;;;;;3.20;2.07;;;;;;;8.85;100.00;98761.34;5082453;28;20205;-73
2021/12/31 07:55:33;;;;;;;2.43;2.10;;;;;;;8.69;100.00;98766.91;5082269;28;20231;-74
2021/12/31 07:57:59;;;;;;;2.93;2.67;;;;;;;8.85;100.00;98764.00;5063142;28;20197;-74
2021/12/31 08:00:26;;;;;;;3.00;2.20;;;;;;;8.59;100.00;98766.41;5062282;28;20322;-74
2021/12/31 08:02:59;;;;;;;4.73;2.10;;;;;;;8.51;100.00;98770.00;5059981;28;20202;-74
2021/12/31 08:05:26;;;;;;;3.37;2.63;;;;;;;8.46;100.00;98767.09;5058524;28;20218;-74
2021/12/31 08:07:53;;;;;;;2.97;2.30;;;;;;;8.40;100.00;98769.66;5058287;28;20586;-70
2021/12/31 08:10:20;;;;;;;3.13;2.40;;;;;;;8.41;100.00;98771.34;5058944;28;20196;-70
2021/12/31 08:12:47;;;;;;;3.23;2.40;;;;;;;8.43;100.00;98771.94;5077296;28;20196;-70
2021/12/31 08:15:14;;;;;;;3.23;2.43;;;;;;;8.63;100.00;98775.59;5078512;28;20604;-70
2021/12/31 08:17:41;;;;;;;3.17;2.37;;;;;;;8.54;100.00;98780.22;5079613;28;20201;-70
2021/12/31 08:20:08;;;;;;;3.43;3.00;;;;;;;8.86;100.00;98777.06;5064730;28;20189;-70
2021/12/31 08:22:35;;;;;;;4.53;2.87;;;;;;;8.83;100.00;98781.94;5057849;28;20616;-70
2021/12/31 08:25:01;;;;;;;4.60;3.17;;;;;;;9.02;100.00;98789.25;5058362;28;20196;-70
2021/12/31 08:27:27;;;;;;;2.97;2.60;;;;;;;8.89;100.00;98789.13;5058444;28;20186;-69
2021/12/31 08:29:54;;;;;;;3.97;2.63;;;;;;;8.90;100.00;98783.63;5069740;28;20195;-70
2021/12/31 08:32:20;;;;;;;2.90;2.70;;;;;;;8.89;100.00;98789.13;5078449;28;20203;-70
2021/12/31 08:34:47;;;;;;;4.03;3.37;;;;;;;9.04;100.00;98782.72;5078353;28;20205;-70
2021/12/31 08:37:13;;;;;;;3.00;2.70;;;;;;;9.00;100.00;98781.47;5076379;28;20221;-70
2021/12/31 08:39:40;;;;;;;2.63;2.43;;;;;;;8.94;100.00;98773.47;5078283;28;20193;-70
2021/12/31 08:42:06;;;;;;;4.23;3.30;;;;;;;8.98;100.00;98770.25;5077958;28;20220;-70
2021/12/31 08:44:33;;;;;;;3.50;3.13;;;;;;;9.09;100.00;98782.19;5078058;28;20204;-70
2021/12/31 08:46:59;;;;;;;3.50;3.23;;;;;;;9.19;100.00;98774.69;5065800;28;20291;-70
2021/12/31 08:49:26;;;;;;;3.57;3.27;;;;;;;9.19;100.00;98764.09;5058124;28;20193;-70
2021/12/31 08:51:53;;;;;;;3.57;3.23;;;;;;;9.15;100.00;98762.84;5058096;28;20582;-70
2021/12/31 08:54:20;;;;;;;3.33;3.00;;;;;;;9.19;100.00;98766.75;5057820;28;20205;-70
2021/12/31 08:56:47;;;;;;;3.80;3.40;;;;;;;9.26;100.00;98765.78;5067475;28;20231;-70
2021/12/31 08:59:13;;;;;;;3.90;3.43;;;;;;;9.23;100.00;98755.53;5077801;28;20211;-70
2021/12/31 09:01:40;;;;;;;3.17;2.90;;;;;;;9.18;100.00;98757.13;5077968;28;20208;-70
2021/12/31 09:04:06;;;;;;;4.40;3.53;;;;;;;9.19;100.00;98750.81;5072457;28;20205;-70
2021/12/31 09:06:32;;;;;;;4.40;3.53;;;;;;;9.22;100.00;98753.06;5057687;28;20216;-70
2021/12/31 09:08:59;;;;;;;4.13;3.70;;;;;;;9.32;100.00;98742.97;5057576;28;20204;-69
2021/12/31 09:11:25;;;;;;;4.57;3.60;;;;;;;9.38;100.00;98760.75;5057687;28;20185;-70
2021/12/31 09:13:54;;;;;;;4.20;3.27;;;;;;;9.45;100.00;98754.47;5057562;28;20200;-69
2021/12/31 09:16:20;;;;;;;3.80;3.50;;;;;;;9.41;100.00;98752.41;5058097;28;20308;-70
2021/12/31 09:18:46;;;;;;;3.83;3.20;;;;;;;9.48;100.00;98750.59;5057587;28;20194;-69
2021/12/31 09:21:14;;;;;;;4.13;3.50;;;;;;;9.58;100.00;98759.84;5057214;28;20190;-70
2021/12/31 09:23:40;;;;;;;6.17;3.40;;;;;;;9.62;99.64;98754.97;5074491;28;20195;-69
2021/12/31 09:26:06;;;;;;;3.33;3.07;;;;;;;9.76;98.83;98751.34;5076978;28;20527;-69
2021/12/31 09:28:33;;;;;;;3.27;2.93;;;;;;;9.68;98.84;98743.59;5077095;28;20205;-69
2021/12/31 09:31:01;;;;;;;4.67;3.50;;;;;;;9.63;100.00;98741.50;5077328;28;20196;-69
2021/12/31 09:33:28;;;;;;;4.83;3.50;;;;;;;9.68;99.64;98749.69;5063657;28;20197;-69
2021/12/31 09:35:54;;;;;;;4.20;3.80;;;;;;;9.96;99.63;98749.63;5062057;28;20524;-70
2021/12/31 09:38:20;;;;;;;4.00;3.67;;;;;;;10.28;98.36;98748.97;5057297;28;20217;-70
2021/12/31 09:40:48;;;;;;;4.67;4.17;;;;;;;10.39;98.52;98743.06;5057053;28;20196;-70
2021/12/31 09:43:15;;;;;;;6.17;3.93;;;;;;;10.49;96.56;98746.97;5073173;28;20204;-69
2021/12/31 09:45:44;;;;;;;3.50;3.20;;;;;;;10.51;95.15;98739.59;5076898;28;20225;-70
2021/12/31 09:48:13;;;;;;;4.97;2.97;;;;;;;10.57;93.82;98743.28;5076487;28;20201;-69
2021/12/31 09:50:42;;;;;;;4.63;3.23;;;;;;;10.37;95.19;98747.75;5058775;28;20196;-70
2021/12/31 09:53:10;;;;;;;4.80;3.20;;;;;;;10.39;95.72;98748.38;5056945;28;20194;-69
2021/12/31 09:55:54;;;;;;;3.67;3.13;;;;;;;10.41;95.43;98749.81;5056591;28;20640;-69
2021/12/31 09:58:23;;;;;;;3.80;3.40;;;;;;;10.46;94.85;98750.00;5056956;28;20189;-69
2021/12/31 10:00:53;;;;;;;5.83;3.63;;;;;;;10.51;95.16;98752.88;5075286;28;20280;-69
2021/12/31 10:03:25;;;;;;;4.17;3.67;;;;;;;10.69;94.81;98758.44;5075812;28;20496;-70
2021/12/31 10:05:54;;;;;;;4.40;4.00;;;;;;;11.07;94.97;98740.88;5056572;28;20232;-69
2021/12/31 10:08:25;;;;;;;4.37;3.97;;;;;;;11.08;94.62;98733.69;5056426;28;20196;-69
2021/12/31 10:11:12;;;;;;;4.60;3.83;;;;;;;11.22;94.46;98738.03;5075108;28;20193;-69
2021/12/31 10:13:42;;;;;;;4.33;3.80;;;;;;;11.32;93.69;98734.91;5076662;28;20189;-70
2021/12/31 10:16:37;;;;;;;4.67;4.27;;;;;;;11.53;92.07;98743.47;5076521;28;20228;-69
2021/12/31 10:19:15;;;;;;;3.73;3.43;;;;;;;11.45;91.90;98740.22;5067210;28;20596;-69
2021/12/31 10:21:51;;;;;;;3.90;3.50;;;;;;;11.50;92.39;98735.09;5056370;28;20216;-69
2021/12/31 10:24:33;;;;;;;4.20;3.67;;;;;;;11.65;91.39;98720.53;5056044;28;20556;-69
2021/12/31 10:27:16;;;;;;;4.03;3.37;;;;;;;11.57;90.87;98717.28;5056518;28;20221;-69
2021/12/31 10:29:58;;;;;;;4.00;3.60;;;;;;;11.66;90.88;98716.84;5070227;28;20189;-69
2021/12/31 10:32:30;;;;;;;3.63;3.33;;;;;;;11.67;91.13;98715.00;5076196;28;20200;-70
2021/12/31 10:35:18;;;;;;;3.90;3.60;;;;;;;11.64;90.90;98716.25;5076478;28;20195;-70
2021/12/31 10:37:58;;;;;;;3.87;3.50;;;;;;;11.67;91.14;98713.16;5076344;28;20189;-70
2021/12/31 10:40:40;;;;;;;3.87;3.50;;;;;;;11.81;90.47;98719.25;5057103;28;20474;-70
2021/12/31 10:43:21;;;;;;;3.93;3.63;;;;;;;11.77;90.78;98716.22;5055896;28;20221;-70
2021/12/31 10:46:09;;;;;;;3.50;3.20;;;;;;;11.79;90.57;98711.47;5056381;28;20225;-69
2021/12/31 10:48:45;;;;;;;4.63;3.40;;;;;;;11.82;90.68;98707.56;5056250;28;20185;-69
2021/12/31 10:51:14;;;;;;;3.73;3.43;;;;;;;11.80;90.40;98702.44;5055941;28;20203;-69
2021/12/31 10:53:49;;;;;;;5.03;3.27;;;;;;;11.87;89.60;98694.44;5056099;28;20197;-70
2021/12/31 10:56:15;;;;;;;4.67;3.30;;;;;;;11.95;89.83;98696.88;5056020;28;20220;-70
2021/12/31 10:58:47;;;;;;;3.50;3.20;;;;;;;11.94;89.61;98701.38;5059551;28;20573;-69
2021/12/31 11:01:16;;;;;;;3.67;3.37;;;;;;;11.95;89.86;98703.03;5075388;28;20189;-69
2021/12/31 11:03:43;;;;;;;3.30;3.00;;;;;;;12.03;88.78;98694.75;5076173;28;20222;-69
2021/12/31 11:06:13;;;;;;;3.63;3.03;;;;;;;12.00;88.94;98681.88;5075647;28;20217;-70
2021/12/31 11:08:43;;;;;;;4.13;3.27;;;;;;;12.02;89.06;98687.81;5073957;28;20232;-69
2021/12/31 11:11:09;;;;;;;2.50;2.27;;;;;;;12.15;88.82;98694.91;5076147;28;20197;-69
2021/12/31 11:13:36;;;;;;;2.97;2.40;;;;;;;12.26;87.81;98687.06;5075571;28;20584;-70
2021/12/31 11:16:02;;;;;;;3.00;2.70;;;;;;;12.28;87.52;98682.34;5075393;28;20228;-70
2021/12/31 11:18:28;;;;;;;3.03;2.80;;;;;;;12.23;88.08;98686.66;5059662;28;20189;-69
2021/12/31 11:21:05;;;;;;;3.40;2.90;;;;;;;12.25;87.83;98687.28;5056123;28;20205;-69
2021/12/31 11:23:33;;;;;;;3.40;2.63;;;;;;;12.36;87.35;98684.75;5055298;28;20493;-70
2021/12/31 11:26:02;;;;;;;3.27;2.70;;;;;;;12.38;86.82;98677.34;5074800;28;20230;-70
2021/12/31 11:28:34;;;;;;;2.43;2.23;;;;;;;12.32;87.33;98672.06;5075854;28;20202;-70
2021/12/31 11:31:19;;;;;;;2.60;2.40;;;;;;;12.27;87.79;98667.38;5075945;28;20201;-69
2021/12/31 11:33:57;;;;;;;3.30;2.70;;;;;;;12.49;86.15;98666.00;5060859;28;20196;-70
2021/12/31 11:36:43;;;;;;;2.50;2.30;;;;;;;12.53;86.33;98661.84;5056881;28;20241;-70
2021/12/31 11:39:23;;;;;;;3.40;2.77;;;;;;;12.65;85.77;98656.63;5059320;28;20201;-69